sensor_id;sensor_type;location;lat;lon;timestamp;P1;durP1;ratioP1;P2;durP2;ratioP2
70800;SDS011;59616;52.170;5.386;2022-11-12T00:01:25;18.25;;;7.40;;
70800;SDS011;59616;52.170;5.386;2022-11-12T00:04:10;19.80;;;8.07;;
70800;SDS011;59616;52.170;5.386;2022-11-12T00:06:56;19.45;;;8.40;;
70800;SDS011;59616;52.170;5.386;2022-11-12T00:09:42;20.63;;;8.35;;
70800;SDS011;59616;52.170;5.386;2022-11-12T00:12:28;19.55;;;7.65;;
70800;SDS011;59616;52.170;5.386;2022-11-12T00:15:13;15.25;;;7.55;;
70800;SDS011;59616;52.170;5.386;2022-11-12T00:20:45;16.17;;;6.22;;
70800;SDS011;59616;52.170;5.386;2022-11-12T00:23:30;15.02;;;6.85;;
70800;SDS011;59616;52.170;5.386;2022-11-12T00:26:16;15.60;;;6.63;;
70800;SDS011;59616;52.170;5.386;2022-11-12T00:29:02;15.43;;;6.80;;
70800;SDS011;59616;52.170;5.386;2022-11-12T00:37:18;15.18;;;6.60;;
70800;SDS011;59616;52.170;5.386;2022-11-12T00:40:07;18.65;;;6.88;;
70800;SDS011;59616;52.170;5.386;2022-11-12T00:42:52;16.30;;;6.28;;
70800;SDS011;59616;52.170;5.386;2022-11-12T00:45:38;13.18;;;6.07;;
70800;SDS011;59616;52.170;5.386;2022-11-12T00:48:24;19.55;;;7.03;;
70800;SDS011;59616;52.170;5.386;2022-11-12T00:51:10;15.27;;;6.40;;
70800;SDS011;59616;52.170;5.386;2022-11-12T00:53:56;14.15;;;5.85;;
70800;SDS011;59616;52.170;5.386;2022-11-12T00:56:42;17.33;;;6.50;;
70800;SDS011;59616;52.170;5.386;2022-11-12T00:59:27;16.02;;;6.75;;
70800;SDS011;59616;52.170;5.386;2022-11-12T01:04:58;16.20;;;6.43;;
70800;SDS011;59616;52.170;5.386;2022-11-12T01:07:44;13.40;;;5.93;;
70800;SDS011;59616;52.170;5.386;2022-11-12T01:10:35;17.42;;;6.60;;
70800;SDS011;59616;52.170;5.386;2022-11-12T01:13:21;14.35;;;5.90;;
70800;SDS011;59616;52.170;5.386;2022-11-12T01:16:08;18.52;;;6.35;;
70800;SDS011;59616;52.170;5.386;2022-11-12T01:18:54;15.82;;;6.47;;
70800;SDS011;59616;52.170;5.386;2022-11-12T01:21:41;15.85;;;7.07;;
70800;SDS011;59616;52.170;5.386;2022-11-12T01:24:27;15.70;;;6.85;;
70800;SDS011;59616;52.170;5.386;2022-11-12T01:27:13;17.73;;;7.10;;
70800;SDS011;59616;52.170;5.386;2022-11-12T01:29:58;17.70;;;7.18;;
70800;SDS011;59616;52.170;5.386;2022-11-12T01:32:44;14.85;;;6.82;;
70800;SDS011;59616;52.170;5.386;2022-11-12T01:38:15;18.67;;;7.43;;
70800;SDS011;59616;52.170;5.386;2022-11-12T01:41:01;18.02;;;7.43;;
70800;SDS011;59616;52.170;5.386;2022-11-12T01:43:47;16.25;;;7.15;;
70800;SDS011;59616;52.170;5.386;2022-11-12T01:46:33;18.90;;;7.60;;
70800;SDS011;59616;52.170;5.386;2022-11-12T01:49:26;17.45;;;7.55;;
70800;SDS011;59616;52.170;5.386;2022-11-12T01:52:17;16.40;;;6.70;;
70800;SDS011;59616;52.170;5.386;2022-11-12T01:55:04;16.15;;;6.80;;
70800;SDS011;59616;52.170;5.386;2022-11-12T01:57:52;19.42;;;7.35;;
70800;SDS011;59616;52.170;5.386;2022-11-12T02:00:40;20.02;;;8.25;;
70800;SDS011;59616;52.170;5.386;2022-11-12T02:08:57;18.63;;;7.97;;
70800;SDS011;59616;52.170;5.386;2022-11-12T02:11:43;16.80;;;7.13;;
70800;SDS011;59616;52.170;5.386;2022-11-12T02:14:29;18.92;;;7.72;;
70800;SDS011;59616;52.170;5.386;2022-11-12T02:17:15;20.48;;;7.82;;
70800;SDS011;59616;52.170;5.386;2022-11-12T02:20:01;17.02;;;8.07;;
70800;SDS011;59616;52.170;5.386;2022-11-12T02:22:46;16.45;;;7.60;;
70800;SDS011;59616;52.170;5.386;2022-11-12T02:25:32;18.15;;;8.35;;
70800;SDS011;59616;52.170;5.386;2022-11-12T02:31:04;19.17;;;7.88;;
70800;SDS011;59616;52.170;5.386;2022-11-12T02:33:50;19.38;;;7.78;;
70800;SDS011;59616;52.170;5.386;2022-11-12T02:36:36;19.73;;;8.30;;
70800;SDS011;59616;52.170;5.386;2022-11-12T02:39:21;17.05;;;7.65;;
70800;SDS011;59616;52.170;5.386;2022-11-12T02:42:07;18.60;;;7.95;;
70800;SDS011;59616;52.170;5.386;2022-11-12T02:44:53;19.67;;;8.07;;
70800;SDS011;59616;52.170;5.386;2022-11-12T02:47:39;20.25;;;8.10;;
70800;SDS011;59616;52.170;5.386;2022-11-12T02:50:24;17.48;;;8.63;;
70800;SDS011;59616;52.170;5.386;2022-11-12T02:53:10;20.45;;;8.20;;
70800;SDS011;59616;52.170;5.386;2022-11-12T02:55:56;20.77;;;7.93;;
70800;SDS011;59616;52.170;5.386;2022-11-12T02:58:42;21.48;;;8.15;;
70800;SDS011;59616;52.170;5.386;2022-11-12T03:01:28;17.38;;;7.55;;
70800;SDS011;59616;52.170;5.386;2022-11-12T03:04:13;19.45;;;8.20;;
70800;SDS011;59616;52.170;5.386;2022-11-12T03:06:59;25.83;;;8.85;;
70800;SDS011;59616;52.170;5.386;2022-11-12T03:09:45;23.05;;;8.52;;
70800;SDS011;59616;52.170;5.386;2022-11-12T03:12:31;23.65;;;9.05;;
70800;SDS011;59616;52.170;5.386;2022-11-12T03:15:16;24.58;;;8.95;;
70800;SDS011;59616;52.170;5.386;2022-11-12T03:18:02;25.75;;;9.77;;
70800;SDS011;59616;52.170;5.386;2022-11-12T03:20:50;28.17;;;9.73;;
70800;SDS011;59616;52.170;5.386;2022-11-12T03:23:35;34.13;;;9.45;;
70800;SDS011;59616;52.170;5.386;2022-11-12T03:26:21;24.38;;;8.75;;
70800;SDS011;59616;52.170;5.386;2022-11-12T03:29:07;21.60;;;9.30;;
70800;SDS011;59616;52.170;5.386;2022-11-12T03:31:53;26.45;;;9.82;;
70800;SDS011;59616;52.170;5.386;2022-11-12T03:34:39;40.58;;;10.30;;
70800;SDS011;59616;52.170;5.386;2022-11-12T03:37:24;38.42;;;10.23;;
70800;SDS011;59616;52.170;5.386;2022-11-12T03:40:10;30.52;;;10.30;;
70800;SDS011;59616;52.170;5.386;2022-11-12T03:42:56;52.10;;;10.77;;
70800;SDS011;59616;52.170;5.386;2022-11-12T03:45:42;48.42;;;11.48;;
70800;SDS011;59616;52.170;5.386;2022-11-12T03:48:27;54.00;;;9.57;;
70800;SDS011;59616;52.170;5.386;2022-11-12T03:51:13;36.90;;;10.82;;
70800;SDS011;59616;52.170;5.386;2022-11-12T03:54:00;25.98;;;9.93;;
70800;SDS011;59616;52.170;5.386;2022-11-12T03:56:45;26.25;;;9.85;;
70800;SDS011;59616;52.170;5.386;2022-11-12T03:59:31;26.95;;;10.52;;
70800;SDS011;59616;52.170;5.386;2022-11-12T04:02:17;31.48;;;10.13;;
70800;SDS011;59616;52.170;5.386;2022-11-12T04:05:03;35.25;;;9.70;;
70800;SDS011;59616;52.170;5.386;2022-11-12T04:08:12;32.20;;;10.25;;
70800;SDS011;59616;52.170;5.386;2022-11-12T04:11:17;28.60;;;8.98;;
70800;SDS011;59616;52.170;5.386;2022-11-12T04:14:04;25.23;;;9.68;;
70800;SDS011;59616;52.170;5.386;2022-11-12T04:16:50;34.28;;;10.35;;
70800;SDS011;59616;52.170;5.386;2022-11-12T04:19:54;30.63;;;10.40;;
70800;SDS011;59616;52.170;5.386;2022-11-12T04:22:59;34.38;;;10.10;;
70800;SDS011;59616;52.170;5.386;2022-11-12T04:25:44;28.70;;;9.63;;
70800;SDS011;59616;52.170;5.386;2022-11-12T04:28:49;24.45;;;10.18;;
70800;SDS011;59616;52.170;5.386;2022-11-12T04:31:53;43.90;;;9.90;;
70800;SDS011;59616;52.170;5.386;2022-11-12T04:34:39;29.05;;;9.77;;
70800;SDS011;59616;52.170;5.386;2022-11-12T04:37:25;28.73;;;9.75;;
70800;SDS011;59616;52.170;5.386;2022-11-12T04:40:12;21.65;;;8.95;;
70800;SDS011;59616;52.170;5.386;2022-11-12T04:43:16;23.60;;;9.23;;
70800;SDS011;59616;52.170;5.386;2022-11-12T04:46:21;23.27;;;9.60;;
70800;SDS011;59616;52.170;5.386;2022-11-12T04:49:07;19.73;;;9.32;;
70800;SDS011;59616;52.170;5.386;2022-11-12T04:51:52;20.95;;;10.00;;
70800;SDS011;59616;52.170;5.386;2022-11-12T04:54:50;18.48;;;9.25;;
70800;SDS011;59616;52.170;5.386;2022-11-12T04:57:36;19.23;;;8.40;;
70800;SDS011;59616;52.170;5.386;2022-11-12T05:00:23;19.63;;;9.18;;
70800;SDS011;59616;52.170;5.386;2022-11-12T05:03:08;19.92;;;8.77;;
70800;SDS011;59616;52.170;5.386;2022-11-12T05:05:59;21.20;;;8.80;;
70800;SDS011;59616;52.170;5.386;2022-11-12T05:08:44;36.00;;;8.98;;
70800;SDS011;59616;52.170;5.386;2022-11-12T05:11:30;29.92;;;9.82;;
70800;SDS011;59616;52.170;5.386;2022-11-12T05:14:16;29.75;;;9.35;;
70800;SDS011;59616;52.170;5.386;2022-11-12T05:17:03;34.20;;;9.30;;
70800;SDS011;59616;52.170;5.386;2022-11-12T05:19:48;25.27;;;8.68;;
70800;SDS011;59616;52.170;5.386;2022-11-12T05:22:34;20.10;;;8.70;;
70800;SDS011;59616;52.170;5.386;2022-11-12T05:25:34;18.77;;;8.75;;
70800;SDS011;59616;52.170;5.386;2022-11-12T05:28:20;21.00;;;8.98;;
70800;SDS011;59616;52.170;5.386;2022-11-12T05:31:06;22.17;;;9.32;;
70800;SDS011;59616;52.170;5.386;2022-11-12T05:33:51;19.10;;;8.63;;
70800;SDS011;59616;52.170;5.386;2022-11-12T05:36:37;20.20;;;9.77;;
70800;SDS011;59616;52.170;5.386;2022-11-12T05:39:23;21.65;;;9.52;;
70800;SDS011;59616;52.170;5.386;2022-11-12T05:42:09;26.75;;;9.90;;
70800;SDS011;59616;52.170;5.386;2022-11-12T05:44:57;34.47;;;9.77;;
70800;SDS011;59616;52.170;5.386;2022-11-12T05:47:43;24.42;;;10.00;;
70800;SDS011;59616;52.170;5.386;2022-11-12T05:50:29;23.63;;;9.07;;
70800;SDS011;59616;52.170;5.386;2022-11-12T05:53:24;29.25;;;9.85;;
70800;SDS011;59616;52.170;5.386;2022-11-12T05:56:09;25.27;;;9.98;;
70800;SDS011;59616;52.170;5.386;2022-11-12T05:58:55;25.42;;;9.50;;
70800;SDS011;59616;52.170;5.386;2022-11-12T06:01:41;27.00;;;10.10;;
70800;SDS011;59616;52.170;5.386;2022-11-12T06:04:29;32.20;;;9.27;;
70800;SDS011;59616;52.170;5.386;2022-11-12T06:07:15;24.58;;;8.80;;
70800;SDS011;59616;52.170;5.386;2022-11-12T06:10:01;38.25;;;10.05;;
70800;SDS011;59616;52.170;5.386;2022-11-12T06:12:47;30.98;;;9.25;;
70800;SDS011;59616;52.170;5.386;2022-11-12T06:15:33;37.22;;;10.02;;
70800;SDS011;59616;52.170;5.386;2022-11-12T06:18:23;33.95;;;9.32;;
70800;SDS011;59616;52.170;5.386;2022-11-12T06:21:10;33.13;;;9.05;;
70800;SDS011;59616;52.170;5.386;2022-11-12T06:24:08;43.08;;;10.07;;
70800;SDS011;59616;52.170;5.386;2022-11-12T06:26:54;26.77;;;8.43;;
70800;SDS011;59616;52.170;5.386;2022-11-12T06:29:39;24.27;;;9.15;;
70800;SDS011;59616;52.170;5.386;2022-11-12T06:32:25;42.40;;;9.38;;
70800;SDS011;59616;52.170;5.386;2022-11-12T06:35:11;41.03;;;9.27;;
70800;SDS011;59616;52.170;5.386;2022-11-12T06:37:57;27.08;;;8.98;;
70800;SDS011;59616;52.170;5.386;2022-11-12T06:40:42;19.70;;;8.68;;
70800;SDS011;59616;52.170;5.386;2022-11-12T06:43:29;26.40;;;10.15;;
70800;SDS011;59616;52.170;5.386;2022-11-12T06:46:15;22.15;;;8.75;;
70800;SDS011;59616;52.170;5.386;2022-11-12T06:49:01;23.48;;;9.20;;
70800;SDS011;59616;52.170;5.386;2022-11-12T06:51:49;21.10;;;10.00;;
70800;SDS011;59616;52.170;5.386;2022-11-12T06:54:35;20.98;;;8.88;;
70800;SDS011;59616;52.170;5.386;2022-11-12T06:57:20;20.92;;;8.93;;
70800;SDS011;59616;52.170;5.386;2022-11-12T07:00:06;22.38;;;9.20;;
70800;SDS011;59616;52.170;5.386;2022-11-12T07:02:55;23.48;;;9.13;;
70800;SDS011;59616;52.170;5.386;2022-11-12T07:05:41;21.70;;;9.77;;
70800;SDS011;59616;52.170;5.386;2022-11-12T07:08:27;22.73;;;9.48;;
70800;SDS011;59616;52.170;5.386;2022-11-12T07:11:13;20.10;;;8.32;;
70800;SDS011;59616;52.170;5.386;2022-11-12T07:13:59;24.35;;;9.18;;
70800;SDS011;59616;52.170;5.386;2022-11-12T07:16:45;21.10;;;8.70;;
70800;SDS011;59616;52.170;5.386;2022-11-12T07:19:30;21.17;;;9.25;;
70800;SDS011;59616;52.170;5.386;2022-11-12T07:22:16;20.48;;;9.30;;
70800;SDS011;59616;52.170;5.386;2022-11-12T07:25:02;21.30;;;8.93;;
70800;SDS011;59616;52.170;5.386;2022-11-12T07:33:18;18.98;;;8.50;;
70800;SDS011;59616;52.170;5.386;2022-11-12T07:36:08;19.48;;;8.43;;
70800;SDS011;59616;52.170;5.386;2022-11-12T07:38:54;17.88;;;8.82;;
70800;SDS011;59616;52.170;5.386;2022-11-12T07:44:25;23.13;;;9.88;;
70800;SDS011;59616;52.170;5.386;2022-11-12T07:47:11;20.13;;;9.63;;
70800;SDS011;59616;52.170;5.386;2022-11-12T07:49:57;20.85;;;10.13;;
70800;SDS011;59616;52.170;5.386;2022-11-12T07:52:43;20.38;;;9.05;;
70800;SDS011;59616;52.170;5.386;2022-11-12T07:55:29;21.73;;;10.68;;
70800;SDS011;59616;52.170;5.386;2022-11-12T07:58:15;21.27;;;9.88;;
70800;SDS011;59616;52.170;5.386;2022-11-12T08:01:08;24.27;;;10.38;;
70800;SDS011;59616;52.170;5.386;2022-11-12T08:03:54;25.35;;;9.95;;
70800;SDS011;59616;52.170;5.386;2022-11-12T08:06:40;23.88;;;10.13;;
70800;SDS011;59616;52.170;5.386;2022-11-12T08:09:25;24.63;;;11.25;;
70800;SDS011;59616;52.170;5.386;2022-11-12T08:12:11;24.77;;;10.00;;
70800;SDS011;59616;52.170;5.386;2022-11-12T08:14:57;24.70;;;10.38;;
70800;SDS011;59616;52.170;5.386;2022-11-12T08:17:43;21.17;;;9.55;;
70800;SDS011;59616;52.170;5.386;2022-11-12T08:20:29;22.98;;;8.95;;
70800;SDS011;59616;52.170;5.386;2022-11-12T08:23:14;20.17;;;9.45;;
70800;SDS011;59616;52.170;5.386;2022-11-12T08:26:01;23.20;;;9.65;;
70800;SDS011;59616;52.170;5.386;2022-11-12T08:28:46;21.17;;;9.68;;
70800;SDS011;59616;52.170;5.386;2022-11-12T08:31:32;19.15;;;9.13;;
70800;SDS011;59616;52.170;5.386;2022-11-12T08:34:18;20.77;;;9.50;;
70800;SDS011;59616;52.170;5.386;2022-11-12T08:37:06;20.25;;;9.13;;
70800;SDS011;59616;52.170;5.386;2022-11-12T08:39:52;21.45;;;9.23;;
70800;SDS011;59616;52.170;5.386;2022-11-12T08:42:38;18.67;;;8.13;;
70800;SDS011;59616;52.170;5.386;2022-11-12T08:48:10;18.58;;;9.07;;
70800;SDS011;59616;52.170;5.386;2022-11-12T08:51:02;21.05;;;9.20;;
70800;SDS011;59616;52.170;5.386;2022-11-12T08:53:48;21.77;;;8.50;;
70800;SDS011;59616;52.170;5.386;2022-11-12T08:56:34;18.38;;;8.95;;
70800;SDS011;59616;52.170;5.386;2022-11-12T08:59:20;19.67;;;8.90;;
70800;SDS011;59616;52.170;5.386;2022-11-12T09:02:10;20.63;;;8.30;;
70800;SDS011;59616;52.170;5.386;2022-11-12T09:04:56;19.05;;;8.60;;
70800;SDS011;59616;52.170;5.386;2022-11-12T09:07:42;17.95;;;8.48;;
70800;SDS011;59616;52.170;5.386;2022-11-12T09:16:05;17.33;;;8.45;;
70800;SDS011;59616;52.170;5.386;2022-11-12T09:18:52;19.05;;;8.95;;
70800;SDS011;59616;52.170;5.386;2022-11-12T09:21:38;18.70;;;8.57;;
70800;SDS011;59616;52.170;5.386;2022-11-12T09:24:23;21.92;;;9.25;;
70800;SDS011;59616;52.170;5.386;2022-11-12T09:27:10;19.27;;;8.80;;
70800;SDS011;59616;52.170;5.386;2022-11-12T09:32:41;16.65;;;8.55;;
70800;SDS011;59616;52.170;5.386;2022-11-12T09:35:27;18.55;;;8.75;;
70800;SDS011;59616;52.170;5.386;2022-11-12T09:38:14;19.73;;;8.77;;
70800;SDS011;59616;52.170;5.386;2022-11-12T09:41:17;19.88;;;8.10;;
70800;SDS011;59616;52.170;5.386;2022-11-12T09:44:11;18.30;;;8.60;;
70800;SDS011;59616;52.170;5.386;2022-11-12T09:46:58;21.58;;;9.73;;
70800;SDS011;59616;52.170;5.386;2022-11-12T09:49:49;17.77;;;8.68;;
70800;SDS011;59616;52.170;5.386;2022-11-12T09:52:39;17.92;;;8.52;;
70800;SDS011;59616;52.170;5.386;2022-11-12T09:55:31;16.25;;;8.25;;
70800;SDS011;59616;52.170;5.386;2022-11-12T09:58:18;16.88;;;8.35;;
70800;SDS011;59616;52.170;5.386;2022-11-12T10:01:08;17.08;;;8.20;;
70800;SDS011;59616;52.170;5.386;2022-11-12T10:06:56;17.98;;;8.40;;
70800;SDS011;59616;52.170;5.386;2022-11-12T10:15:52;21.60;;;9.07;;
70800;SDS011;59616;52.170;5.386;2022-11-12T10:19:11;18.58;;;8.32;;
70800;SDS011;59616;52.170;5.386;2022-11-12T10:22:06;19.60;;;8.73;;
70800;SDS011;59616;52.170;5.386;2022-11-12T10:24:56;17.92;;;8.75;;
70800;SDS011;59616;52.170;5.386;2022-11-12T10:27:44;21.50;;;9.90;;
70800;SDS011;59616;52.170;5.386;2022-11-12T10:30:30;20.15;;;8.70;;
70800;SDS011;59616;52.170;5.386;2022-11-12T10:33:16;17.92;;;8.80;;
70800;SDS011;59616;52.170;5.386;2022-11-12T10:38:48;19.40;;;8.85;;
70800;SDS011;59616;52.170;5.386;2022-11-12T10:41:35;17.45;;;8.30;;
70800;SDS011;59616;52.170;5.386;2022-11-12T10:44:24;20.13;;;9.05;;
70800;SDS011;59616;52.170;5.386;2022-11-12T10:47:18;16.58;;;8.10;;
70800;SDS011;59616;52.170;5.386;2022-11-12T10:53:14;16.27;;;7.53;;
70800;SDS011;59616;52.170;5.386;2022-11-12T10:56:23;16.63;;;7.40;;
70800;SDS011;59616;52.170;5.386;2022-11-12T10:59:10;15.98;;;7.05;;
70800;SDS011;59616;52.170;5.386;2022-11-12T11:01:58;13.85;;;7.28;;
70800;SDS011;59616;52.170;5.386;2022-11-12T11:04:44;16.52;;;7.32;;
70800;SDS011;59616;52.170;5.386;2022-11-12T11:07:30;15.95;;;6.95;;
70800;SDS011;59616;52.170;5.386;2022-11-12T11:16:04;14.43;;;6.47;;
70800;SDS011;59616;52.170;5.386;2022-11-12T11:18:52;13.25;;;6.32;;
70800;SDS011;59616;52.170;5.386;2022-11-12T11:30:19;12.40;;;5.35;;
70800;SDS011;59616;52.170;5.386;2022-11-12T11:35:52;14.60;;;6.07;;
70800;SDS011;59616;52.170;5.386;2022-11-12T11:38:58;16.05;;;6.03;;
70800;SDS011;59616;52.170;5.386;2022-11-12T11:41:52;11.57;;;5.38;;
70800;SDS011;59616;52.170;5.386;2022-11-12T11:44:46;12.32;;;5.38;;
70800;SDS011;59616;52.170;5.386;2022-11-12T11:47:37;13.80;;;5.30;;
70800;SDS011;59616;52.170;5.386;2022-11-12T11:50:45;13.27;;;4.90;;
70800;SDS011;59616;52.170;5.386;2022-11-12T11:53:42;12.40;;;5.00;;
70800;SDS011;59616;52.170;5.386;2022-11-12T11:56:31;12.27;;;4.93;;
70800;SDS011;59616;52.170;5.386;2022-11-12T11:59:27;12.40;;;4.82;;
70800;SDS011;59616;52.170;5.386;2022-11-12T12:08:35;11.27;;;4.95;;
70800;SDS011;59616;52.170;5.386;2022-11-12T12:11:29;10.60;;;4.43;;
70800;SDS011;59616;52.170;5.386;2022-11-12T12:20:19;10.05;;;4.40;;
70800;SDS011;59616;52.170;5.386;2022-11-12T12:23:28;11.25;;;4.60;;
70800;SDS011;59616;52.170;5.386;2022-11-12T12:26:13;11.70;;;4.32;;
70800;SDS011;59616;52.170;5.386;2022-11-12T12:29:09;11.13;;;4.93;;
70800;SDS011;59616;52.170;5.386;2022-11-12T12:32:08;11.40;;;4.07;;
70800;SDS011;59616;52.170;5.386;2022-11-12T12:34:57;9.52;;;4.20;;
70800;SDS011;59616;52.170;5.386;2022-11-12T12:41:04;13.18;;;4.43;;
70800;SDS011;59616;52.170;5.386;2022-11-12T12:43:57;10.50;;;4.40;;
70800;SDS011;59616;52.170;5.386;2022-11-12T12:46:56;11.43;;;4.22;;
70800;SDS011;59616;52.170;5.386;2022-11-12T12:49:43;12.13;;;4.32;;
70800;SDS011;59616;52.170;5.386;2022-11-12T12:52:29;10.20;;;3.55;;
70800;SDS011;59616;52.170;5.386;2022-11-12T12:55:39;10.23;;;4.22;;
70800;SDS011;59616;52.170;5.386;2022-11-12T12:58:29;9.65;;;3.63;;
70800;SDS011;59616;52.170;5.386;2022-11-12T13:04:06;10.70;;;4.20;;
70800;SDS011;59616;52.170;5.386;2022-11-12T13:06:55;10.55;;;4.30;;
70800;SDS011;59616;52.170;5.386;2022-11-12T13:09:41;10.13;;;4.32;;
70800;SDS011;59616;52.170;5.386;2022-11-12T13:15:43;15.65;;;4.63;;
70800;SDS011;59616;52.170;5.386;2022-11-12T13:21:24;11.82;;;4.72;;
70800;SDS011;59616;52.170;5.386;2022-11-12T13:24:10;10.60;;;4.70;;
70800;SDS011;59616;52.170;5.386;2022-11-12T13:26:56;9.27;;;3.88;;
70800;SDS011;59616;52.170;5.386;2022-11-12T13:29:43;11.18;;;4.65;;
70800;SDS011;59616;52.170;5.386;2022-11-12T13:32:30;12.05;;;5.55;;
70800;SDS011;59616;52.170;5.386;2022-11-12T13:41:02;10.95;;;5.55;;
70800;SDS011;59616;52.170;5.386;2022-11-12T13:43:51;15.32;;;6.40;;
70800;SDS011;59616;52.170;5.386;2022-11-12T13:46:37;14.00;;;6.90;;
70800;SDS011;59616;52.170;5.386;2022-11-12T13:49:23;11.85;;;5.80;;
70800;SDS011;59616;52.170;5.386;2022-11-12T13:52:10;13.70;;;6.43;;
70800;SDS011;59616;52.170;5.386;2022-11-12T13:55:03;16.02;;;6.78;;
70800;SDS011;59616;52.170;5.386;2022-11-12T13:57:49;15.40;;;6.38;;
70800;SDS011;59616;52.170;5.386;2022-11-12T14:00:36;15.88;;;6.70;;
70800;SDS011;59616;52.170;5.386;2022-11-12T14:03:23;13.70;;;7.00;;
70800;SDS011;59616;52.170;5.386;2022-11-12T14:06:14;13.95;;;6.72;;
70800;SDS011;59616;52.170;5.386;2022-11-12T14:12:02;12.80;;;6.65;;
70800;SDS011;59616;52.170;5.386;2022-11-12T14:15:11;14.43;;;6.70;;
70800;SDS011;59616;52.170;5.386;2022-11-12T14:21:09;20.73;;;10.27;;
70800;SDS011;59616;52.170;5.386;2022-11-12T14:23:55;20.27;;;10.13;;
70800;SDS011;59616;52.170;5.386;2022-11-12T14:26:41;27.83;;;13.05;;
70800;SDS011;59616;52.170;5.386;2022-11-12T14:29:28;27.17;;;13.35;;
70800;SDS011;59616;52.170;5.386;2022-11-12T14:32:20;23.58;;;11.43;;
70800;SDS011;59616;52.170;5.386;2022-11-12T14:35:16;20.92;;;10.20;;
70800;SDS011;59616;52.170;5.386;2022-11-12T14:40:54;18.95;;;10.00;;
70800;SDS011;59616;52.170;5.386;2022-11-12T14:43:48;20.40;;;10.52;;
70800;SDS011;59616;52.170;5.386;2022-11-12T14:46:55;20.73;;;10.30;;
70800;SDS011;59616;52.170;5.386;2022-11-12T14:49:42;21.17;;;11.00;;
70800;SDS011;59616;52.170;5.386;2022-11-12T14:52:32;20.65;;;10.27;;
70800;SDS011;59616;52.170;5.386;2022-11-12T14:55:22;19.58;;;10.52;;
70800;SDS011;59616;52.170;5.386;2022-11-12T14:58:12;23.45;;;10.98;;
70800;SDS011;59616;52.170;5.386;2022-11-12T15:01:15;19.00;;;10.00;;
70800;SDS011;59616;52.170;5.386;2022-11-12T15:04:21;21.13;;;11.13;;
70800;SDS011;59616;52.170;5.386;2022-11-12T15:07:23;21.90;;;11.18;;
70800;SDS011;59616;52.170;5.386;2022-11-12T15:13:22;20.10;;;10.40;;
70800;SDS011;59616;52.170;5.386;2022-11-12T15:16:15;22.63;;;11.73;;
70800;SDS011;59616;52.170;5.386;2022-11-12T15:21:48;23.30;;;11.45;;
70800;SDS011;59616;52.170;5.386;2022-11-12T15:24:35;24.08;;;10.95;;
70800;SDS011;59616;52.170;5.386;2022-11-12T15:27:26;20.70;;;10.82;;
70800;SDS011;59616;52.170;5.386;2022-11-12T15:30:24;21.40;;;10.90;;
70800;SDS011;59616;52.170;5.386;2022-11-12T15:35:59;25.77;;;11.75;;
70800;SDS011;59616;52.170;5.386;2022-11-12T15:38:46;23.75;;;12.15;;
70800;SDS011;59616;52.170;5.386;2022-11-12T15:41:32;22.25;;;11.48;;
70800;SDS011;59616;52.170;5.386;2022-11-12T15:44:18;24.05;;;12.13;;
70800;SDS011;59616;52.170;5.386;2022-11-12T15:47:04;27.80;;;12.82;;
70800;SDS011;59616;52.170;5.386;2022-11-12T15:49:51;24.15;;;11.77;;
70800;SDS011;59616;52.170;5.386;2022-11-12T15:52:37;21.38;;;12.10;;
70800;SDS011;59616;52.170;5.386;2022-11-12T15:55:23;25.50;;;12.63;;
70800;SDS011;59616;52.170;5.386;2022-11-12T15:58:14;29.13;;;13.45;;
70800;SDS011;59616;52.170;5.386;2022-11-12T16:01:00;26.65;;;12.90;;
70800;SDS011;59616;52.170;5.386;2022-11-12T16:03:46;29.80;;;13.82;;
70800;SDS011;59616;52.170;5.386;2022-11-12T16:06:32;26.08;;;13.43;;
70800;SDS011;59616;52.170;5.386;2022-11-12T16:09:18;30.33;;;14.20;;
70800;SDS011;59616;52.170;5.386;2022-11-12T16:12:03;26.23;;;13.15;;
70800;SDS011;59616;52.170;5.386;2022-11-12T16:14:49;28.73;;;13.90;;
70800;SDS011;59616;52.170;5.386;2022-11-12T16:17:35;33.78;;;15.38;;
70800;SDS011;59616;52.170;5.386;2022-11-12T16:25:52;32.17;;;14.23;;
70800;SDS011;59616;52.170;5.386;2022-11-12T16:28:38;30.83;;;13.80;;
70800;SDS011;59616;52.170;5.386;2022-11-12T16:34:09;28.92;;;13.55;;
70800;SDS011;59616;52.170;5.386;2022-11-12T16:36:55;26.33;;;13.65;;
70800;SDS011;59616;52.170;5.386;2022-11-12T16:39:41;29.17;;;13.80;;
70800;SDS011;59616;52.170;5.386;2022-11-12T16:42:27;32.78;;;14.00;;
70800;SDS011;59616;52.170;5.386;2022-11-12T16:45:13;24.63;;;12.95;;
70800;SDS011;59616;52.170;5.386;2022-11-12T16:47:59;25.33;;;12.57;;
70800;SDS011;59616;52.170;5.386;2022-11-12T16:53:30;25.38;;;12.95;;
70800;SDS011;59616;52.170;5.386;2022-11-12T16:56:17;27.48;;;13.15;;
70800;SDS011;59616;52.170;5.386;2022-11-12T16:59:03;27.30;;;12.77;;
70800;SDS011;59616;52.170;5.386;2022-11-12T17:01:49;25.88;;;12.60;;
70800;SDS011;59616;52.170;5.386;2022-11-12T17:04:35;25.20;;;11.98;;
70800;SDS011;59616;52.170;5.386;2022-11-12T17:07:21;26.63;;;11.75;;
70800;SDS011;59616;52.170;5.386;2022-11-12T17:10:07;23.90;;;11.82;;
70800;SDS011;59616;52.170;5.386;2022-11-12T17:15:38;24.35;;;10.90;;
70800;SDS011;59616;52.170;5.386;2022-11-12T17:21:13;23.85;;;10.20;;
70800;SDS011;59616;52.170;5.386;2022-11-12T17:23:59;21.15;;;10.45;;
70800;SDS011;59616;52.170;5.386;2022-11-12T17:26:45;27.58;;;11.80;;
70800;SDS011;59616;52.170;5.386;2022-11-12T17:29:30;31.17;;;15.70;;
70800;SDS011;59616;52.170;5.386;2022-11-12T17:32:16;37.17;;;15.80;;
70800;SDS011;59616;52.170;5.386;2022-11-12T17:37:48;29.88;;;15.25;;
70800;SDS011;59616;52.170;5.386;2022-11-12T17:40:34;34.40;;;16.83;;
70800;SDS011;59616;52.170;5.386;2022-11-12T17:43:20;38.75;;;17.25;;
70800;SDS011;59616;52.170;5.386;2022-11-12T17:46:06;37.08;;;18.23;;
70800;SDS011;59616;52.170;5.386;2022-11-12T17:48:53;40.90;;;19.50;;
70800;SDS011;59616;52.170;5.386;2022-11-12T17:51:39;41.15;;;20.48;;
70800;SDS011;59616;52.170;5.386;2022-11-12T17:54:25;43.53;;;22.60;;
70800;SDS011;59616;52.170;5.386;2022-11-12T17:57:11;41.35;;;23.45;;
70800;SDS011;59616;52.170;5.386;2022-11-12T18:02:42;43.92;;;21.92;;
70800;SDS011;59616;52.170;5.386;2022-11-12T18:08:13;50.40;;;23.60;;
70800;SDS011;59616;52.170;5.386;2022-11-12T18:11:00;49.30;;;24.52;;
70800;SDS011;59616;52.170;5.386;2022-11-12T18:13:46;46.20;;;23.98;;
70800;SDS011;59616;52.170;5.386;2022-11-12T18:19:17;47.05;;;23.73;;
70800;SDS011;59616;52.170;5.386;2022-11-12T18:22:03;53.50;;;25.70;;
70800;SDS011;59616;52.170;5.386;2022-11-12T18:27:34;49.72;;;23.55;;
70800;SDS011;59616;52.170;5.386;2022-11-12T18:30:20;48.53;;;23.38;;
70800;SDS011;59616;52.170;5.386;2022-11-12T18:36:04;42.83;;;20.73;;
70800;SDS011;59616;52.170;5.386;2022-11-12T18:38:51;43.83;;;22.33;;
70800;SDS011;59616;52.170;5.386;2022-11-12T18:41:38;41.22;;;20.42;;
70800;SDS011;59616;52.170;5.386;2022-11-12T18:47:10;49.67;;;22.65;;
70800;SDS011;59616;52.170;5.386;2022-11-12T18:49:55;49.15;;;23.30;;
70800;SDS011;59616;52.170;5.386;2022-11-12T18:55:27;50.25;;;24.13;;
70800;SDS011;59616;52.170;5.386;2022-11-12T18:58:13;51.70;;;25.02;;
70800;SDS011;59616;52.170;5.386;2022-11-12T19:01:05;49.72;;;22.88;;
70800;SDS011;59616;52.170;5.386;2022-11-12T19:03:53;46.83;;;23.13;;
70800;SDS011;59616;52.170;5.386;2022-11-12T19:06:39;45.97;;;22.58;;
70800;SDS011;59616;52.170;5.386;2022-11-12T19:09:24;44.28;;;22.20;;
70800;SDS011;59616;52.170;5.386;2022-11-12T19:12:10;43.15;;;22.73;;
70800;SDS011;59616;52.170;5.386;2022-11-12T19:17:42;49.67;;;23.20;;